createdAt,value
2019-01-25T00:01:17.382Z,95635.69
2019-01-25T00:04:07.110Z,95624.41
2019-01-25T00:06:49.700Z,95635.33
2019-01-25T00:09:39.456Z,95628.98
2019-01-25T00:12:22.448Z,95636.22
2019-01-25T00:15:12.670Z,95628.02
2019-01-25T00:17:54.718Z,95639.73
2019-01-25T00:20:44.534Z,95618.48
2019-01-25T00:23:27.654Z,95626.29
2019-01-25T00:26:36.840Z,95635.64
2019-01-25T00:29:21.602Z,95639.70
2019-01-25T00:32:12.299Z,95638.72
2019-01-25T00:34:55.782Z,95642.64
2019-01-25T00:37:45.549Z,95635.92
2019-01-25T00:40:27.438Z,95637.30
2019-01-25T00:43:11.766Z,95633.47
2019-01-25T00:46:01.493Z,95639.05
2019-01-25T00:48:44.878Z,95638.52
2019-01-25T00:54:17.870Z,95633.99
2019-01-25T00:57:07.642Z,95632.05
2019-01-25T00:59:50.359Z,95630.44
2019-01-25T01:02:40.496Z,95636.88
2019-01-25T01:05:22.786Z,95653.22
2019-01-25T01:08:12.560Z,95662.23
2019-01-25T01:10:54.937Z,95659.38
2019-01-25T01:13:44.718Z,95668.28
2019-01-25T01:16:30.654Z,95664.83
2019-01-25T01:19:20.393Z,95664.97
2019-01-25T01:22:02.483Z,95671.20
2019-01-25T01:24:52.246Z,95684.16
2019-01-25T01:27:42.076Z,95661.16
2019-01-25T01:30:24.486Z,95680.25
2019-01-25T01:33:14.274Z,95662.92
2019-01-25T01:36:04.023Z,95682.30
2019-01-25T01:38:46.487Z,95695.20
2019-01-25T01:41:36.281Z,95687.75
2019-01-25T01:44:26.929Z,95685.04
2019-01-25T01:47:10.535Z,95685.95
2019-01-25T01:50:00.281Z,95689.11
2019-01-25T01:52:51.289Z,95690.14
2019-01-25T01:55:41.043Z,95688.02
2019-01-25T01:58:43.593Z,95692.11
2019-01-25T02:01:26.000Z,95665.05
2019-01-25T02:04:15.744Z,95679.98
2019-01-25T02:06:58.153Z,95683.74
2019-01-25T02:09:47.913Z,95683.37
2019-01-25T02:12:30.065Z,95688.27
2019-01-25T02:15:20.709Z,95689.45
2019-01-25T02:18:03.288Z,95688.63
2019-01-25T02:20:53.077Z,95688.13
2019-01-25T02:23:35.613Z,95690.80
2019-01-25T02:26:25.374Z,95687.45
2019-01-25T02:29:08.321Z,95692.80
2019-01-25T02:31:58.095Z,95683.30
2019-01-25T02:34:40.490Z,95691.77
2019-01-25T02:37:30.265Z,95682.03
2019-01-25T02:40:13.423Z,95693.17
2019-01-25T02:43:03.201Z,95695.15
2019-01-25T02:45:46.873Z,95695.69
2019-01-25T02:48:36.603Z,95695.65
2019-01-25T02:51:26.461Z,95701.44
2019-01-25T02:54:16.194Z,95701.27
2019-01-25T02:57:00.699Z,95700.49
2019-01-25T02:59:50.428Z,95702.06
2019-01-25T03:02:32.794Z,95679.84
2019-01-25T03:05:22.951Z,95692.64
2019-01-25T03:08:04.853Z,95701.70
2019-01-25T03:10:54.642Z,95706.86
2019-01-25T03:13:37.361Z,95708.16
2019-01-25T03:16:27.073Z,95715.41
2019-01-25T03:19:09.000Z,95719.88
2019-01-25T03:21:58.739Z,95725.46
2019-01-25T03:24:42.158Z,95710.37
2019-01-25T03:27:31.916Z,95728.84
2019-01-25T03:30:15.192Z,95726.93
2019-01-25T03:33:04.956Z,95730.63
2019-01-25T03:35:48.719Z,95729.52
2019-01-25T03:38:38.461Z,95727.88
2019-01-25T03:41:21.138Z,95717.08
2019-01-25T03:47:11.917Z,95739.73
2019-01-25T04:08:22.182Z,95749.03
2019-01-25T04:11:11.956Z,95750.66
2019-01-25T04:13:56.010Z,95760.56
2019-01-25T04:16:45.771Z,95754.75
2019-01-25T04:19:28.113Z,95751.68
2019-01-25T04:22:17.889Z,95759.28
2019-01-25T04:25:00.486Z,95763.52
2019-01-25T04:27:31.198Z,95753.80
2019-01-25T04:30:22.978Z,95764.77
2019-01-25T04:33:05.935Z,95764.77
2019-01-25T04:35:36.605Z,95747.41
2019-01-25T04:38:26.387Z,95754.03
2019-01-25T04:41:11.710Z,95745.86
2019-01-25T04:43:59.975Z,95739.05
2019-01-25T04:46:49.808Z,95732.37
2019-01-25T04:49:39.691Z,95740.17
2019-01-25T04:52:29.526Z,95740.72
2019-01-25T04:55:21.576Z,95738.42
2019-01-25T04:58:34.630Z,95745.48
2019-01-25T05:01:16.892Z,95742.47
2019-01-25T05:03:47.565Z,95746.00
2019-01-25T05:09:37.373Z,95745.32
2019-01-25T05:12:27.110Z,95743.59
2019-01-25T05:15:10.097Z,95769.27
2019-01-25T05:17:57.009Z,95771.70
2019-01-25T05:20:39.142Z,95767.71
2019-01-25T05:23:28.947Z,95747.91
2019-01-25T05:26:21.791Z,95776.64
2019-01-25T05:29:24.961Z,95769.53
2019-01-25T05:32:07.157Z,95776.13
2019-01-25T05:34:56.952Z,95783.30
2019-01-25T05:37:39.321Z,95792.31
2019-01-25T05:40:29.047Z,95798.23
2019-01-25T05:43:11.889Z,95810.09
2019-01-25T05:46:01.630Z,95814.93
2019-01-25T05:48:44.144Z,95823.94
2019-01-25T05:51:33.961Z,95826.72
2019-01-25T05:54:16.129Z,95833.51
2019-01-25T05:57:05.885Z,95836.90
2019-01-25T05:59:48.088Z,95835.81
2019-01-25T06:02:37.871Z,95827.55
2019-01-25T06:05:19.999Z,95824.45
2019-01-25T06:08:32.339Z,95828.84
2019-01-25T06:11:15.313Z,95829.98
2019-01-25T06:14:05.075Z,95821.59
2019-01-25T06:16:47.339Z,95813.68
2019-01-25T06:19:40.100Z,95802.31
2019-01-25T06:22:22.163Z,95823.13
2019-01-25T06:25:05.547Z,95824.59
2019-01-25T06:27:55.280Z,95825.47
2019-01-25T06:30:37.843Z,95814.41
2019-01-25T06:33:28.629Z,95829.63
2019-01-25T06:36:18.438Z,95833.09
2019-01-25T06:39:09.928Z,95831.91
2019-01-25T06:41:59.659Z,95835.50
2019-01-25T06:44:49.411Z,95828.01
2019-01-25T06:47:33.009Z,95835.98
2019-01-25T06:50:22.731Z,95846.22
2019-01-25T06:53:04.983Z,95843.83
2019-01-25T06:55:54.761Z,95848.87
2019-01-25T06:58:56.980Z,95855.82
2019-01-25T07:02:05.587Z,95860.27
2019-01-25T07:04:47.603Z,95842.48
2019-01-25T07:13:37.425Z,95866.14
2019-01-25T07:16:27.197Z,95860.45
2019-01-25T07:19:09.338Z,95859.70
2019-01-25T07:21:59.175Z,95851.56
2019-01-25T07:24:49.437Z,95866.81
2019-01-25T07:27:39.195Z,95873.44
2019-01-25T07:30:29.008Z,95876.73
2019-01-25T07:33:11.310Z,95875.63
2019-01-25T07:36:01.169Z,95881.21
2019-01-25T07:38:50.958Z,95883.47
2019-01-25T07:41:40.761Z,95871.66
2019-01-25T07:44:30.586Z,95893.31
2019-01-25T07:47:20.423Z,95895.78
2019-01-25T07:50:29.366Z,95895.61
2019-01-25T07:53:37.925Z,95910.46
2019-01-25T07:56:20.176Z,95926.06
2019-01-25T08:02:13.620Z,95939.90
2019-01-25T08:04:55.893Z,95937.13
2019-01-25T08:07:45.686Z,95941.64
2019-01-25T08:10:35.623Z,95940.45
2019-01-25T08:13:25.460Z,95945.67
2019-01-25T08:16:15.280Z,95954.79
2019-01-25T08:18:58.632Z,95957.92
2019-01-25T08:22:07.540Z,95958.05
2019-01-25T08:24:38.630Z,95967.59
2019-01-25T08:27:28.519Z,95963.35
2019-01-25T08:30:12.003Z,95962.31
2019-01-25T08:33:01.804Z,95976.83
2019-01-25T08:35:44.057Z,95967.97
2019-01-25T08:38:33.751Z,95971.91
2019-01-25T08:41:16.628Z,95972.55
2019-01-25T08:44:06.430Z,95973.57
2019-01-25T08:46:48.799Z,95973.97
2019-01-25T08:52:40.560Z,95967.75
2019-01-25T08:55:30.275Z,95961.78
2019-01-25T08:58:12.699Z,95963.20
2019-01-25T09:01:02.488Z,95959.02
2019-01-25T09:03:45.324Z,95946.37
2019-01-25T09:06:35.069Z,95938.14
2019-01-25T09:09:17.969Z,95952.75
2019-01-25T09:12:07.724Z,95952.05
2019-01-25T09:14:50.340Z,95952.05
2019-01-25T09:17:40.110Z,95963.28
2019-01-25T09:20:23.064Z,95962.66
2019-01-25T09:23:12.800Z,95949.71
2019-01-25T09:26:00.946Z,95953.50
2019-01-25T09:28:46.564Z,95968.67
2019-01-25T09:31:29.154Z,95982.34
2019-01-25T09:34:18.909Z,95985.95
2019-01-25T09:37:01.578Z,95984.39
2019-01-25T09:39:51.307Z,95984.36
2019-01-25T09:42:33.517Z,95986.84
2019-01-25T09:45:23.371Z,95992.68
2019-01-25T09:48:06.013Z,95985.23
2019-01-25T09:50:36.766Z,95993.61
2019-01-25T09:53:26.531Z,95993.79
2019-01-25T09:56:08.629Z,95998.42
2019-01-25T09:58:59.060Z,95996.84
2019-01-25T10:01:48.878Z,96005.00
2019-01-25T10:04:38.810Z,96010.28
2019-01-25T10:07:28.634Z,96010.42
2019-01-25T10:10:18.482Z,96012.63
2019-01-25T10:13:08.296Z,95987.32
2019-01-25T10:15:58.121Z,96005.61
2019-01-25T10:21:56.701Z,95994.03
2019-01-25T10:24:39.517Z,95994.98
2019-01-25T10:30:16.585Z,95984.65
2019-01-25T10:33:06.527Z,95980.44
2019-01-25T10:35:53.123Z,95978.86
2019-01-25T10:38:42.863Z,95974.09
2019-01-25T10:41:25.079Z,95974.74
2019-01-25T10:44:14.875Z,95970.52
2019-01-25T10:46:58.217Z,95969.21
2019-01-25T10:49:47.967Z,95963.66
2019-01-25T10:52:30.181Z,95941.06
2019-01-25T10:55:19.948Z,95957.05
2019-01-25T10:58:02.600Z,95957.78
2019-01-25T11:00:33.303Z,95960.87
2019-01-25T11:03:23.024Z,95968.22
2019-01-25T11:06:05.429Z,95958.27
2019-01-25T11:08:55.275Z,95964.42
2019-01-25T11:14:32.636Z,95974.45
2019-01-25T11:17:22.398Z,95964.27
2019-01-25T11:20:06.317Z,95968.53
2019-01-25T11:22:56.192Z,95968.67
2019-01-25T11:25:39.296Z,95971.48
2019-01-25T11:28:29.011Z,95962.14
2019-01-25T11:31:11.309Z,95962.47
2019-01-25T11:34:01.061Z,95957.32
2019-01-25T11:36:47.531Z,95980.88
2019-01-25T11:39:37.316Z,95982.66
2019-01-25T11:42:19.636Z,95980.33
2019-01-25T11:45:10.515Z,95978.79
2019-01-25T11:47:55.005Z,95983.33
2019-01-25T11:50:44.782Z,95980.48
2019-01-25T11:53:26.948Z,95973.53
2019-01-25T11:56:16.712Z,95970.45
2019-01-25T12:02:20.853Z,95952.97
2019-01-25T12:08:18.767Z,95952.91
2019-01-25T12:11:08.567Z,95944.05
2019-01-25T12:13:52.257Z,95949.66
2019-01-25T12:16:41.975Z,95934.22
2019-01-25T12:19:23.911Z,95951.67
2019-01-25T12:22:13.670Z,95944.05
2019-01-25T12:24:57.020Z,95948.53
2019-01-25T12:27:46.835Z,95932.30
2019-01-25T12:36:34.054Z,95923.44
2019-01-25T12:39:24.432Z,95933.48
2019-01-25T12:42:14.183Z,95936.09
2019-01-25T12:45:04.061Z,95917.07
2019-01-25T12:47:53.823Z,95917.67
2019-01-25T12:51:22.544Z,95915.88
2019-01-25T12:57:04.005Z,95930.28
2019-01-25T12:59:53.796Z,95927.20
2019-01-25T13:02:38.086Z,95916.45
2019-01-25T13:05:27.819Z,95927.78
2019-01-25T13:08:10.980Z,95927.02
2019-01-25T13:11:00.734Z,95927.20
2019-01-25T13:13:45.601Z,95920.95
2019-01-25T13:16:35.303Z,95923.16
2019-01-25T13:19:17.805Z,95924.75
2019-01-25T13:22:07.538Z,95922.97
2019-01-25T13:24:49.834Z,95918.15
2019-01-25T13:27:39.591Z,95923.00
2019-01-25T13:30:22.820Z,95922.80
2019-01-25T13:33:12.540Z,95933.88
2019-01-25T13:36:01.476Z,95939.30
2019-01-25T13:38:51.221Z,95939.66
2019-01-25T13:41:38.098Z,95945.17
2019-01-25T13:44:30.240Z,95947.30
2019-01-25T13:47:13.106Z,95949.53
2019-01-25T13:55:55.210Z,95956.14
2019-01-25T13:58:45.072Z,95962.42
2019-01-25T14:01:34.948Z,95968.22
2019-01-25T14:04:17.489Z,95966.09
2019-01-25T14:07:07.234Z,95968.33
2019-01-25T14:09:49.517Z,95975.48
2019-01-25T14:12:39.248Z,95960.49
2019-01-25T14:18:21.537Z,95972.05
2019-01-25T14:21:11.491Z,95953.81
2019-01-25T14:23:56.914Z,95979.89
2019-01-25T14:26:46.724Z,95981.12
2019-01-25T14:29:29.447Z,95977.41
2019-01-25T14:32:19.214Z,95971.36
2019-01-25T14:35:09.106Z,95969.22
2019-01-25T14:37:59.034Z,95958.23
2019-01-25T14:40:48.840Z,95974.60
2019-01-25T14:46:33.295Z,95981.87
2019-01-25T14:52:06.429Z,95971.05
2019-01-25T14:54:56.706Z,95971.66
2019-01-25T14:57:43.415Z,95979.23
2019-01-25T15:00:33.156Z,95980.44
2019-01-25T15:03:15.689Z,95983.95
2019-01-25T15:06:05.564Z,95981.75
2019-01-25T15:08:47.629Z,95991.31
2019-01-25T15:11:37.517Z,95975.77
2019-01-25T15:14:19.684Z,95995.78
2019-01-25T15:17:22.071Z,95997.77
2019-01-25T15:20:05.671Z,96005.47
2019-01-25T15:22:55.405Z,96001.99
2019-01-25T15:25:37.313Z,95993.09
2019-01-25T15:28:27.083Z,96007.16
2019-01-25T15:31:09.561Z,96000.75
2019-01-25T15:36:51.159Z,96008.59
2019-01-25T15:39:41.873Z,96001.97
2019-01-25T15:42:31.724Z,95989.91
2019-01-25T15:48:03.495Z,95971.09
2019-01-25T15:50:53.265Z,95971.29
2019-01-25T15:53:43.045Z,95964.59
2019-01-25T15:56:32.815Z,95984.50
2019-01-25T15:59:19.615Z,95993.25
2019-01-25T16:02:09.391Z,95995.26
2019-01-25T16:04:55.705Z,95996.14
2019-01-25T16:07:45.441Z,95998.05
2019-01-25T16:10:27.973Z,95990.28
2019-01-25T16:13:17.718Z,96002.72
2019-01-25T16:16:01.593Z,96022.06
2019-01-25T16:18:51.314Z,96029.45
2019-01-25T16:21:33.664Z,96024.17
2019-01-25T16:24:23.427Z,96018.78
2019-01-25T16:27:05.739Z,96013.64
2019-01-25T16:29:55.465Z,96020.45
2019-01-25T16:32:37.949Z,96011.69
2019-01-25T16:35:27.713Z,96018.50
2019-01-25T16:38:10.009Z,96017.98
2019-01-25T16:40:59.791Z,96031.26
2019-01-25T16:43:47.241Z,96031.42
2019-01-25T16:46:37.000Z,96036.69
2019-01-25T16:49:20.400Z,96032.16
2019-01-25T16:52:10.244Z,96027.99
2019-01-25T16:54:52.845Z,96021.21
2019-01-25T16:57:42.715Z,96056.20
2019-01-25T17:00:36.174Z,96061.25
2019-01-25T17:03:25.960Z,96061.06
2019-01-25T17:06:07.914Z,96049.37
2019-01-25T17:08:57.702Z,96055.17
2019-01-25T17:11:39.966Z,96049.83
2019-01-25T17:14:33.543Z,96044.67
2019-01-25T17:17:14.056Z,96052.27
2019-01-25T17:20:03.834Z,96028.85
2019-01-25T17:22:53.545Z,96022.29
2019-01-25T17:25:43.366Z,96036.91
2019-01-25T17:28:33.170Z,96032.80
2019-01-25T17:31:22.929Z,96037.41
2019-01-25T17:34:12.710Z,96013.52
2019-01-25T17:36:55.372Z,96034.73
2019-01-25T17:39:45.214Z,96036.11
2019-01-25T17:42:54.146Z,96038.97
2019-01-25T17:45:43.968Z,96035.66
2019-01-25T17:48:34.100Z,96037.61
2019-01-25T17:51:23.873Z,96025.30
2019-01-25T17:54:13.729Z,96039.86
2019-01-25T17:57:03.804Z,96041.75
2019-01-25T17:59:51.709Z,96054.85
2019-01-25T18:02:35.391Z,96051.72
2019-01-25T18:08:36.188Z,96066.02
2019-01-25T18:11:22.826Z,96062.03
2019-01-25T18:17:15.117Z,96064.30
2019-01-25T18:20:05.594Z,96071.94
2019-01-25T18:22:47.612Z,96056.14
2019-01-25T18:26:15.473Z,96076.91
2019-01-25T18:29:02.510Z,96058.81
2019-01-25T18:31:52.274Z,96054.01
2019-01-25T18:34:35.171Z,96076.20
2019-01-25T18:37:24.916Z,96059.11
2019-01-25T18:40:08.288Z,96078.94
2019-01-25T18:42:58.026Z,96090.13
2019-01-25T18:45:40.394Z,96084.06
2019-01-25T18:48:30.109Z,96088.53
2019-01-25T18:51:13.024Z,96076.98
2019-01-25T18:54:02.772Z,96092.80
2019-01-25T18:56:46.514Z,96087.45
2019-01-25T18:59:36.268Z,96088.31
2019-01-25T19:02:18.254Z,96083.84
2019-01-25T19:05:08.880Z,96086.98
2019-01-25T19:07:50.844Z,96089.32
2019-01-25T19:10:40.631Z,96086.81
2019-01-25T19:13:22.771Z,96091.52
2019-01-25T19:16:12.513Z,96092.78
2019-01-25T19:18:54.780Z,96086.33
2019-01-25T19:21:44.562Z,96088.44
2019-01-25T19:24:27.395Z,96099.00
2019-01-25T19:27:17.237Z,96100.06
2019-01-25T19:30:28.024Z,96114.54
2019-01-25T19:33:17.836Z,96109.13
2019-01-25T19:36:00.493Z,96119.56
2019-01-25T19:38:50.272Z,96114.54
2019-01-25T19:41:40.794Z,96105.67
2019-01-25T19:44:24.156Z,96114.17
2019-01-25T19:47:14.113Z,96109.11
2019-01-25T19:50:04.044Z,96102.85
2019-01-25T19:52:53.974Z,96084.34
2019-01-25T19:55:43.771Z,96101.42
2019-01-25T19:58:33.521Z,96094.55
2019-01-25T20:01:16.057Z,96094.97
2019-01-25T20:04:24.861Z,96092.69
2019-01-25T20:07:14.662Z,96085.83
2019-01-25T20:10:16.788Z,96062.13
2019-01-25T20:12:59.280Z,96083.04
2019-01-25T20:15:49.095Z,96071.56
2019-01-25T20:18:38.873Z,96069.44
2019-01-25T20:27:04.483Z,96083.91
2019-01-25T20:29:54.237Z,96079.08
2019-01-25T20:32:36.659Z,96080.63
2019-01-25T20:35:28.865Z,96073.85
2019-01-25T20:38:11.635Z,96066.13
2019-01-25T20:41:01.410Z,96062.16
2019-01-25T20:43:44.957Z,96074.57
2019-01-25T20:46:34.699Z,96069.44
2019-01-25T20:49:18.315Z,96069.52
2019-01-25T20:52:08.087Z,96067.89
2019-01-25T20:54:50.638Z,96079.90
2019-01-25T20:57:40.383Z,96065.98
2019-01-25T21:00:24.192Z,96068.83
2019-01-25T21:03:15.858Z,96058.11
2019-01-25T21:05:58.003Z,96070.67
2019-01-25T21:08:47.777Z,96070.06
2019-01-25T21:11:30.497Z,96076.45
2019-01-25T21:14:20.322Z,96082.84
2019-01-25T21:17:02.808Z,96086.38
2019-01-25T21:19:52.542Z,96090.63
2019-01-25T21:22:42.288Z,96091.64
2019-01-25T21:25:24.663Z,96074.32
2019-01-25T21:28:26.752Z,96093.23
2019-01-25T21:30:57.495Z,96094.74
2019-01-25T21:33:47.228Z,96093.27
2019-01-25T21:36:29.348Z,96095.78
2019-01-25T21:39:19.543Z,96089.75
2019-01-25T21:42:01.578Z,96085.49
2019-01-25T21:44:51.338Z,96088.41
2019-01-25T21:47:33.248Z,96087.86
2019-01-25T21:50:25.694Z,96072.38
2019-01-25T21:53:08.138Z,96081.41
2019-01-25T21:58:33.521Z,96068.14
2019-01-25T22:01:23.424Z,96073.47
2019-01-25T22:04:13.283Z,96072.92
2019-01-25T22:09:59.184Z,96062.25
2019-01-25T22:12:49.029Z,96072.40
2019-01-25T22:15:31.263Z,96069.80
2019-01-25T22:18:20.963Z,96079.14
2019-01-25T22:21:03.787Z,96086.47
2019-01-25T22:23:53.551Z,96087.57
2019-01-25T22:26:36.162Z,96087.65
2019-01-25T22:29:25.901Z,96079.88
2019-01-25T22:32:15.637Z,96091.20
2019-01-25T22:37:56.869Z,96086.25
2019-01-25T22:40:33.183Z,96074.00
2019-01-25T22:43:05.432Z,96090.27
2019-01-25T22:45:50.495Z,96073.92
2019-01-25T22:48:33.571Z,96071.55
2019-01-25T22:51:23.393Z,96065.19
2019-01-25T22:57:16.986Z,96054.95
2019-01-25T22:59:59.806Z,96045.92
2019-01-25T23:02:49.579Z,96067.61
2019-01-25T23:06:17.587Z,96060.47
2019-01-25T23:09:40.012Z,96049.23
2019-01-25T23:12:10.958Z,96050.95
2019-01-25T23:15:00.705Z,96044.65
2019-01-25T23:17:50.483Z,96039.92
2019-01-25T23:20:33.123Z,96039.13
2019-01-25T23:23:22.845Z,96048.33
2019-01-25T23:26:05.359Z,96039.67
2019-01-25T23:28:55.107Z,96040.38
2019-01-25T23:31:37.717Z,96035.98
2019-01-25T23:34:27.667Z,96034.48
2019-01-25T23:37:10.031Z,96032.81
2019-01-25T23:39:59.791Z,96032.98
2019-01-25T23:42:42.197Z,96022.52
2019-01-25T23:45:32.055Z,96019.76
2019-01-25T23:48:14.405Z,96009.14
2019-01-25T23:51:04.135Z,96020.39
2019-01-25T23:53:46.302Z,96022.98
2019-01-25T23:59:28.256Z,96032.72
